createdAt,value
2023-04-16T00:00:08.710Z,64.75
2023-04-16T00:02:17.042Z,71.93
2023-04-16T00:04:19.870Z,69.18
2023-04-16T00:06:23.509Z,68.40
2023-04-16T00:08:26.186Z,57.35
2023-04-16T00:10:28.863Z,65.03
2023-04-16T00:12:34.082Z,60.22
2023-04-16T00:14:36.632Z,61.92
2023-04-16T00:16:39.251Z,56.28
2023-04-16T00:18:42.621Z,62.23
2023-04-16T00:20:45.169Z,55.50
2023-04-16T00:22:47.750Z,62.85
2023-04-16T00:24:51.162Z,54.05
2023-04-16T00:26:53.760Z,58.40
2023-04-16T00:28:58.982Z,61.03
2023-04-16T00:31:02.124Z,60.05
2023-04-16T00:33:05.691Z,49.58
2023-04-16T00:35:09.021Z,55.75
2023-04-16T00:37:12.207Z,58.75
2023-04-16T00:39:14.776Z,56.05
2023-04-16T00:41:19.320Z,56.65
2023-04-16T00:43:25.033Z,53.50
2023-04-16T00:45:30.224Z,54.28
2023-04-16T00:47:32.934Z,61.47
2023-04-16T00:49:36.383Z,57.42
2023-04-16T00:51:39.166Z,56.23
2023-04-16T00:53:43.102Z,61.17
2023-04-16T00:55:46.213Z,55.67
2023-04-16T00:57:48.770Z,47.40
2023-04-16T00:59:52.100Z,51.53
2023-04-16T01:01:57.462Z,57.40
2023-04-16T01:04:00.399Z,55.92
2023-04-16T01:06:03.535Z,59.28
2023-04-16T01:08:06.832Z,59.65
2023-04-16T01:10:09.906Z,58.38
2023-04-16T01:12:12.470Z,57.20
2023-04-16T01:14:15.156Z,52.30
2023-04-16T01:16:17.908Z,55.63
2023-04-16T01:18:24.219Z,64.88
2023-04-16T01:20:27.732Z,53.35
2023-04-16T01:22:35.262Z,61.45
2023-04-16T01:24:38.669Z,64.03
2023-04-16T01:26:41.530Z,65.13
2023-04-16T01:28:44.237Z,60.45
2023-04-16T01:30:46.817Z,59.28
2023-04-16T01:33:00.185Z,61.17
2023-04-16T01:35:03.328Z,52.72
2023-04-16T01:37:05.960Z,51.92
2023-04-16T01:39:14.340Z,51.13
2023-04-16T01:41:19.149Z,49.80
2023-04-16T01:43:22.466Z,55.47
2023-04-16T01:45:25.468Z,60.50
2023-04-16T01:47:28.064Z,65.40
2023-04-16T01:49:31.231Z,52.85
2023-04-16T01:51:34.213Z,61.70
2023-04-16T01:53:37.299Z,52.45
2023-04-16T01:55:42.573Z,61.88
2023-04-16T01:57:45.357Z,68.00
2023-04-16T01:59:49.364Z,58.10
2023-04-16T02:01:53.135Z,60.13
2023-04-16T02:03:56.079Z,64.68
2023-04-16T02:05:58.636Z,62.10
2023-04-16T02:08:01.288Z,72.45
2023-04-16T02:10:05.475Z,59.78
2023-04-16T02:12:12.034Z,57.97
2023-04-16T02:14:14.778Z,62.90
2023-04-16T02:16:19.174Z,65.68
2023-04-16T02:18:32.149Z,75.75
2023-04-16T02:20:40.766Z,76.25
2023-04-16T02:22:43.657Z,73.55
2023-04-16T02:24:50.835Z,78.78
2023-04-16T02:26:58.524Z,68.97
2023-04-16T02:29:03.992Z,73.57
2023-04-16T02:31:19.881Z,78.20
2023-04-16T02:33:26.512Z,53.90
2023-04-16T02:35:37.420Z,78.63
2023-04-16T02:37:41.176Z,88.75
2023-04-16T02:39:44.223Z,92.90
2023-04-16T02:41:46.755Z,99.03
2023-04-16T02:43:49.518Z,90.40
2023-04-16T02:45:54.801Z,85.60
2023-04-16T02:47:57.473Z,96.10
2023-04-16T02:50:00.110Z,97.20
2023-04-16T02:52:02.849Z,83.40
2023-04-16T02:54:05.529Z,67.72
2023-04-16T02:56:08.853Z,78.60
2023-04-16T02:58:13.561Z,73.90
2023-04-16T03:00:16.748Z,56.30
2023-04-16T03:02:22.039Z,84.35
2023-04-16T03:04:25.021Z,78.18
2023-04-16T03:06:27.729Z,89.68
2023-04-16T03:08:30.391Z,89.45
2023-04-16T03:10:33.209Z,95.28
2023-04-16T03:12:36.465Z,63.45
2023-04-16T03:14:42.539Z,70.05
2023-04-16T03:16:45.209Z,73.07
2023-04-16T03:18:51.089Z,72.68
2023-04-16T03:20:55.158Z,72.40
2023-04-16T03:22:57.838Z,71.28
2023-04-16T03:25:00.541Z,81.03
2023-04-16T03:27:03.333Z,68.72
2023-04-16T03:29:06.199Z,73.07
2023-04-16T03:31:11.362Z,63.08
2023-04-16T03:33:14.048Z,73.45
2023-04-16T03:35:19.447Z,74.68
2023-04-16T03:37:22.096Z,68.25
2023-04-16T03:39:26.220Z,67.63
2023-04-16T03:41:28.890Z,70.80
2023-04-16T03:43:31.890Z,62.08
2023-04-16T03:45:35.252Z,70.50
2023-04-16T03:47:37.896Z,66.80
2023-04-16T03:49:40.865Z,77.03
2023-04-16T03:51:46.412Z,64.45
2023-04-16T03:53:49.081Z,75.13
2023-04-16T03:55:53.032Z,65.80
2023-04-16T03:57:57.654Z,77.95
2023-04-16T04:00:00.452Z,68.53
2023-04-16T04:02:11.087Z,83.95
2023-04-16T04:04:14.196Z,68.22
2023-04-16T04:06:17.695Z,68.43
2023-04-16T04:08:23.156Z,75.80
2023-04-16T04:10:27.158Z,64.13
2023-04-16T04:12:29.873Z,74.00
2023-04-16T04:14:32.536Z,81.32
2023-04-16T04:16:36.015Z,70.10
2023-04-16T04:18:44.268Z,57.60
2023-04-16T04:20:47.484Z,62.80
2023-04-16T04:22:54.349Z,97.03
2023-04-16T04:25:06.607Z,69.80
2023-04-16T04:27:15.551Z,71.63
2023-04-16T04:29:19.048Z,68.25
2023-04-16T04:31:24.287Z,75.82
2023-04-16T04:33:29.875Z,75.50
2023-04-16T04:35:40.187Z,65.13
2023-04-16T04:37:45.022Z,62.40
2023-04-16T04:39:57.329Z,60.25
2023-04-16T04:42:08.596Z,73.47
2023-04-16T04:44:11.839Z,68.78
2023-04-16T04:46:15.143Z,65.13
2023-04-16T04:48:18.253Z,65.15
2023-04-16T04:50:22.316Z,63.22
2023-04-16T04:52:25.610Z,62.30
2023-04-16T04:54:35.263Z,64.00
2023-04-16T04:56:38.473Z,65.15
2023-04-16T04:58:45.617Z,61.75
2023-04-16T05:00:49.986Z,70.28
2023-04-16T05:04:59.060Z,47.55
2023-04-16T05:07:02.742Z,57.80
2023-04-16T05:09:06.283Z,58.60
2023-04-16T05:11:15.001Z,54.72
2023-04-16T05:13:21.947Z,57.70
2023-04-16T05:15:27.469Z,79.15
2023-04-16T05:17:30.919Z,59.40
2023-04-16T05:19:37.200Z,67.53
2023-04-16T05:21:41.422Z,67.57
2023-04-16T05:23:45.269Z,68.80
2023-04-16T05:25:48.090Z,63.00
2023-04-16T05:30:06.449Z,55.38
2023-04-16T05:32:15.461Z,57.92
2023-04-16T05:34:18.985Z,66.13
2023-04-16T05:36:22.382Z,54.85
2023-04-16T05:38:28.045Z,57.38
2023-04-16T05:40:31.620Z,68.90
2023-04-16T05:42:34.506Z,58.85
2023-04-16T05:44:39.095Z,72.82
2023-04-16T05:46:42.096Z,62.17
2023-04-16T05:48:47.509Z,60.72
2023-04-16T05:50:54.237Z,73.43
2023-04-16T05:52:59.686Z,66.78
2023-04-16T05:55:02.494Z,65.43
2023-04-16T05:57:08.046Z,72.72
2023-04-16T05:59:20.878Z,73.10
2023-04-16T06:01:28.565Z,69.15
2023-04-16T06:03:34.154Z,71.25
2023-04-16T06:05:39.801Z,59.28
2023-04-16T06:07:42.824Z,76.68
2023-04-16T06:09:48.006Z,78.95
2023-04-16T06:11:53.681Z,96.70
2023-04-16T06:13:56.850Z,87.63
2023-04-16T06:16:02.353Z,99.80
2023-04-16T06:18:11.944Z,87.40
2023-04-16T06:20:15.054Z,66.25
2023-04-16T06:22:24.604Z,73.50
2023-04-16T06:24:30.578Z,78.22
2023-04-16T06:26:36.615Z,65.60
2023-04-16T06:28:39.312Z,79.10
2023-04-16T06:30:45.096Z,81.70
2023-04-16T06:32:51.029Z,82.97
2023-04-16T06:34:59.198Z,71.25
2023-04-16T06:37:03.429Z,77.47
2023-04-16T06:39:09.670Z,64.18
2023-04-16T06:41:25.856Z,90.45
2023-04-16T06:43:33.853Z,72.45
2023-04-16T06:45:39.599Z,97.45
2023-04-16T06:47:42.985Z,84.30
2023-04-16T06:49:48.651Z,98.43
2023-04-16T06:51:53.452Z,96.25
2023-04-16T06:53:57.230Z,90.60
2023-04-16T06:56:03.132Z,91.22
2023-04-16T06:58:08.679Z,103.20
2023-04-16T07:00:19.341Z,107.40
2023-04-16T07:02:32.655Z,91.43
2023-04-16T07:04:36.130Z,93.07
2023-04-16T07:06:40.750Z,90.68
2023-04-16T07:08:46.745Z,103.28
2023-04-16T07:10:52.976Z,111.10
2023-04-16T07:13:02.016Z,98.93
2023-04-16T07:15:10.606Z,108.63
2023-04-16T07:17:16.977Z,110.38
2023-04-16T07:19:22.294Z,110.63
2023-04-16T07:21:29.401Z,92.78
2023-04-16T07:23:35.509Z,88.88
2023-04-16T07:25:38.924Z,77.97
2023-04-16T07:27:42.314Z,79.85
2023-04-16T07:29:47.679Z,87.55
2023-04-16T07:31:50.634Z,80.45
2023-04-16T07:33:56.722Z,83.85
2023-04-16T07:35:59.718Z,77.23
2023-04-16T07:38:05.228Z,74.13
2023-04-16T07:40:12.205Z,65.90
2023-04-16T07:42:16.929Z,76.75
2023-04-16T07:44:26.006Z,73.20
2023-04-16T07:46:45.589Z,73.10
2023-04-16T07:48:52.938Z,69.93
2023-04-16T07:50:57.122Z,71.55
2023-04-16T07:53:03.014Z,48.70
2023-04-16T07:55:06.686Z,61.17
2023-04-16T07:57:12.439Z,63.15
2023-04-16T07:59:23.030Z,63.72
2023-04-16T08:01:28.175Z,65.97
2023-04-16T08:03:35.435Z,69.28
2023-04-16T08:05:41.038Z,65.25
2023-04-16T08:07:44.973Z,66.05
2023-04-16T08:09:54.805Z,59.58
2023-04-16T08:12:00.945Z,61.17
2023-04-16T08:14:06.088Z,58.83
2023-04-16T08:16:09.268Z,58.95
2023-04-16T08:18:18.193Z,55.97
2023-04-16T08:20:23.580Z,53.38
2023-04-16T08:22:26.775Z,49.58
2023-04-16T08:24:30.790Z,51.67
2023-04-16T08:26:34.415Z,51.22
2023-04-16T08:28:37.190Z,58.25
2023-04-16T08:30:42.131Z,50.05
2023-04-16T08:32:45.401Z,56.17
2023-04-16T08:36:57.093Z,49.55
2023-04-16T08:39:00.210Z,45.80
2023-04-16T08:41:11.534Z,50.53
2023-04-16T08:43:19.463Z,48.20
2023-04-16T08:45:22.160Z,51.60
2023-04-16T08:47:27.836Z,52.22
2023-04-16T08:49:35.478Z,54.70
2023-04-16T08:51:49.142Z,53.80
2023-04-16T08:54:05.813Z,53.53
2023-04-16T08:56:11.670Z,65.28
2023-04-16T08:58:16.079Z,61.50
2023-04-16T09:00:22.100Z,59.45
2023-04-16T09:02:28.433Z,61.97
2023-04-16T09:04:33.016Z,63.22
2023-04-16T09:06:41.657Z,61.30
2023-04-16T09:08:45.986Z,67.72
2023-04-16T09:15:03.829Z,45.97
2023-04-16T09:17:07.749Z,44.58
2023-04-16T09:19:16.434Z,66.15
2023-04-16T09:21:23.792Z,49.17
2023-04-16T09:23:26.784Z,53.70
2023-04-16T09:25:37.511Z,60.22
2023-04-16T09:27:44.435Z,59.53
2023-04-16T09:29:50.501Z,53.63
2023-04-16T09:32:07.436Z,48.20
2023-04-16T09:34:15.679Z,41.03
2023-04-16T09:36:23.903Z,51.05
2023-04-16T09:38:27.194Z,37.08
2023-04-16T09:40:36.452Z,46.25
2023-04-16T09:42:45.043Z,52.17
2023-04-16T09:44:50.637Z,51.95
2023-04-16T09:46:56.468Z,49.47
2023-04-16T09:49:05.084Z,50.00
2023-04-16T09:51:07.993Z,43.28
2023-04-16T09:53:10.793Z,46.15
2023-04-16T09:55:14.092Z,45.90
2023-04-16T09:57:22.226Z,38.47
2023-04-16T09:59:31.548Z,38.45
2023-04-16T10:01:36.810Z,28.65
2023-04-16T10:03:41.393Z,45.53
2023-04-16T10:07:50.720Z,22.25
2023-04-16T10:09:53.647Z,27.80
2023-04-16T10:11:57.830Z,26.52
2023-04-16T10:14:03.298Z,36.90
2023-04-16T10:16:09.779Z,27.95
2023-04-16T10:18:13.289Z,36.90
2023-04-16T10:20:18.155Z,25.45
2023-04-16T10:22:22.985Z,35.67
2023-04-16T10:24:35.780Z,28.42
2023-04-16T10:26:42.193Z,23.45
2023-04-16T10:28:47.413Z,37.45
2023-04-16T10:31:01.961Z,28.60
2023-04-16T10:33:08.786Z,28.20
2023-04-16T10:35:16.726Z,30.25
2023-04-16T10:37:21.019Z,26.27
2023-04-16T10:41:32.395Z,25.08
2023-04-16T10:43:41.420Z,17.60
2023-04-16T10:45:45.040Z,29.02
2023-04-16T10:47:48.764Z,39.38
2023-04-16T10:49:54.375Z,23.45
2023-04-16T10:51:58.704Z,32.60
2023-04-16T10:54:05.573Z,27.25
2023-04-16T10:56:15.816Z,20.73
2023-04-16T10:58:28.230Z,24.20
2023-04-16T11:00:32.149Z,25.40
2023-04-16T11:02:35.210Z,36.88
2023-04-16T11:04:39.548Z,25.42
2023-04-16T11:07:05.666Z,26.15
2023-04-16T11:09:40.234Z,31.15
2023-04-16T11:11:43.015Z,65.95
2023-04-16T11:13:46.552Z,22.58
2023-04-16T11:15:49.288Z,34.07
2023-04-16T11:17:52.883Z,41.10
2023-04-16T11:19:56.314Z,44.53
2023-04-16T11:22:01.929Z,35.53
2023-04-16T11:24:04.847Z,55.40
2023-04-16T11:26:22.194Z,45.80
2023-04-16T11:28:39.318Z,35.78
2023-04-16T11:30:46.368Z,39.67
2023-04-16T11:32:50.055Z,32.90
2023-04-16T11:34:53.289Z,39.42
2023-04-16T11:36:56.362Z,44.25
2023-04-16T11:39:06.203Z,51.03
2023-04-16T11:41:13.949Z,37.42
2023-04-16T11:43:17.579Z,39.08
2023-04-16T11:45:21.841Z,36.42
2023-04-16T11:49:30.318Z,29.08
2023-04-16T11:51:32.969Z,33.03
2023-04-16T11:53:36.917Z,43.00
2023-04-16T11:55:46.571Z,42.38
2023-04-16T11:57:52.374Z,40.38
2023-04-16T12:00:02.752Z,31.02
2023-04-16T12:02:15.722Z,41.70
2023-04-16T12:04:24.801Z,40.95
2023-04-16T12:06:27.564Z,33.17
2023-04-16T12:08:32.509Z,40.08
2023-04-16T12:10:36.524Z,45.08
2023-04-16T12:12:41.834Z,35.85
2023-04-16T12:14:51.230Z,39.92
2023-04-16T12:16:57.083Z,31.75
2023-04-16T12:19:02.686Z,42.03
2023-04-16T12:21:08.078Z,34.42
2023-04-16T12:23:11.566Z,33.85
2023-04-16T12:25:15.718Z,35.37
2023-04-16T12:29:24.921Z,33.25
2023-04-16T12:31:38.451Z,38.75
2023-04-16T12:33:44.317Z,37.40
2023-04-16T12:35:49.916Z,37.10
2023-04-16T12:37:55.115Z,33.92
2023-04-16T12:39:58.052Z,30.05
2023-04-16T12:42:01.070Z,53.95
2023-04-16T12:44:09.372Z,45.13
2023-04-16T12:46:15.861Z,25.90
2023-04-16T12:48:20.406Z,38.75
2023-04-16T12:50:26.297Z,32.50
2023-04-16T12:52:29.486Z,34.45
2023-04-16T12:54:32.770Z,36.78
2023-04-16T12:56:36.052Z,36.13
2023-04-16T12:58:42.898Z,36.72
2023-04-16T13:00:45.935Z,29.17
2023-04-16T13:02:51.489Z,33.67
2023-04-16T13:04:54.810Z,35.40
2023-04-16T13:07:00.019Z,28.83
2023-04-16T13:09:02.825Z,33.80
2023-04-16T13:11:08.267Z,31.02
2023-04-16T13:13:10.965Z,36.35
2023-04-16T13:15:13.807Z,38.55
2023-04-16T13:17:16.900Z,32.10
2023-04-16T13:19:24.729Z,36.47
2023-04-16T13:21:27.924Z,35.58
2023-04-16T13:23:33.563Z,33.40
2023-04-16T13:25:39.623Z,47.80
2023-04-16T13:27:42.231Z,34.38
2023-04-16T13:29:45.224Z,31.77
2023-04-16T13:31:52.365Z,36.28
2023-04-16T13:33:56.630Z,38.90
2023-04-16T13:40:09.601Z,32.15
2023-04-16T13:42:12.243Z,37.90
2023-04-16T13:44:14.993Z,33.78
2023-04-16T13:46:19.266Z,35.78
2023-04-16T13:48:25.583Z,35.67
2023-04-16T13:50:32.278Z,39.65
2023-04-16T13:52:37.600Z,35.83
2023-04-16T13:54:42.129Z,40.00
2023-04-16T13:56:56.222Z,38.70
2023-04-16T13:58:59.081Z,36.45
2023-04-16T14:01:01.850Z,38.65
2023-04-16T14:03:07.069Z,35.30
2023-04-16T14:05:10.294Z,45.88
2023-04-16T14:07:21.445Z,49.83
2023-04-16T14:09:26.705Z,46.88
2023-04-16T14:11:29.394Z,36.20
2023-04-16T14:13:32.176Z,33.83
2023-04-16T14:15:35.074Z,40.78
2023-04-16T14:17:38.035Z,30.13
2023-04-16T14:19:45.794Z,45.53
2023-04-16T14:21:48.524Z,38.47
2023-04-16T14:23:51.687Z,40.25
2023-04-16T14:25:57.720Z,45.13
2023-04-16T14:28:01.451Z,32.85
2023-04-16T14:30:05.658Z,34.13
2023-04-16T14:32:12.662Z,33.83
2023-04-16T14:34:15.407Z,34.92
2023-04-16T14:36:23.344Z,92.47
2023-04-16T14:38:27.355Z,30.90
2023-04-16T14:40:30.271Z,29.33
2023-04-16T14:42:37.033Z,34.20
2023-04-16T14:44:39.811Z,39.03
2023-04-16T14:46:42.900Z,32.70
2023-04-16T14:48:47.106Z,30.17
2023-04-16T14:52:53.910Z,29.42
2023-04-16T14:56:58.997Z,27.00
2023-04-16T14:59:04.276Z,30.35
2023-04-16T15:01:06.908Z,37.03
2023-04-16T15:03:09.756Z,26.85
2023-04-16T15:05:18.216Z,38.72
2023-04-16T15:07:21.440Z,32.38
2023-04-16T15:09:24.202Z,41.92
2023-04-16T15:11:30.420Z,28.17
2023-04-16T15:13:35.909Z,35.88
2023-04-16T15:15:41.239Z,36.45
2023-04-16T15:17:44.154Z,29.40
2023-04-16T15:19:46.894Z,31.15
2023-04-16T15:21:49.552Z,31.38
2023-04-16T15:23:52.297Z,31.27
2023-04-16T15:25:55.061Z,35.90
2023-04-16T15:27:57.776Z,36.20
2023-04-16T15:30:00.625Z,29.23
2023-04-16T15:32:07.559Z,27.67
2023-04-16T15:34:14.269Z,57.53
2023-04-16T15:36:17.041Z,34.25
2023-04-16T15:38:21.576Z,36.13
2023-04-16T15:40:26.591Z,32.72
2023-04-16T15:42:29.328Z,33.42
2023-04-16T15:44:34.545Z,47.63
2023-04-16T15:46:39.776Z,33.83
2023-04-16T15:48:45.274Z,36.30
2023-04-16T15:50:48.452Z,41.17
2023-04-16T15:52:54.145Z,48.85
2023-04-16T15:54:57.191Z,39.67
2023-04-16T15:57:02.774Z,33.65
2023-04-16T15:59:05.490Z,38.58
2023-04-16T16:01:12.772Z,37.75
2023-04-16T16:03:15.954Z,30.05
2023-04-16T16:05:21.456Z,34.50
2023-04-16T16:07:26.540Z,33.15
2023-04-16T16:09:29.270Z,34.28
2023-04-16T16:11:32.827Z,40.08
2023-04-16T16:13:37.367Z,36.55
2023-04-16T16:15:41.696Z,41.28
2023-04-16T16:17:44.490Z,32.45
2023-04-16T16:19:49.516Z,46.40
2023-04-16T16:21:54.761Z,38.15
2023-04-16T16:23:58.229Z,38.90
2023-04-16T16:26:06.389Z,36.33
2023-04-16T16:28:11.974Z,38.75
2023-04-16T16:30:15.924Z,39.63
2023-04-16T16:32:18.667Z,37.35
2023-04-16T16:34:22.250Z,42.55
2023-04-16T16:36:25.207Z,28.08
2023-04-16T16:38:30.652Z,38.80
2023-04-16T16:40:33.417Z,38.90
2023-04-16T16:42:36.501Z,36.47
2023-04-16T16:44:39.151Z,42.03
2023-04-16T16:46:41.913Z,40.22
2023-04-16T16:48:47.315Z,38.67
2023-04-16T16:50:50.068Z,41.70
2023-04-16T16:52:53.109Z,39.22
2023-04-16T16:55:01.494Z,39.38
2023-04-16T16:57:06.494Z,46.63
2023-04-16T16:59:12.694Z,38.10
2023-04-16T17:01:16.007Z,44.90
2023-04-16T17:03:18.737Z,43.80
2023-04-16T17:05:21.773Z,40.78
2023-04-16T17:07:30.298Z,39.60
2023-04-16T17:09:33.189Z,42.25
2023-04-16T17:11:41.334Z,40.63
2023-04-16T17:13:44.214Z,40.63
2023-04-16T17:15:47.035Z,44.85
2023-04-16T17:17:50.163Z,34.00
2023-04-16T17:19:55.672Z,43.28
2023-04-16T17:21:58.666Z,45.00
2023-04-16T17:24:01.607Z,44.75
2023-04-16T17:26:04.513Z,45.53
2023-04-16T17:28:09.916Z,40.60
2023-04-16T17:30:13.221Z,43.63
2023-04-16T17:32:16.123Z,38.80
2023-04-16T17:34:22.340Z,43.85
2023-04-16T17:36:27.594Z,44.53
2023-04-16T17:38:30.317Z,39.35
2023-04-16T17:40:34.268Z,42.63
2023-04-16T17:42:37.253Z,30.85
2023-04-16T17:44:45.193Z,41.03
2023-04-16T17:46:50.635Z,54.30
2023-04-16T17:48:53.512Z,47.90
2023-04-16T17:50:56.362Z,44.35
2023-04-16T17:53:05.849Z,44.53
2023-04-16T17:55:11.978Z,61.97
2023-04-16T17:57:14.784Z,39.00
2023-04-16T17:59:17.439Z,43.42
2023-04-16T18:01:24.128Z,40.00
2023-04-16T18:03:27.400Z,37.85
2023-04-16T18:05:31.302Z,36.58
2023-04-16T18:07:34.785Z,39.75
2023-04-16T18:09:37.594Z,42.67
2023-04-16T18:11:41.091Z,34.20
2023-04-16T18:13:47.078Z,35.63
2023-04-16T18:15:49.969Z,40.72
2023-04-16T18:17:55.913Z,41.50
2023-04-16T18:20:01.181Z,38.42
2023-04-16T18:22:06.120Z,39.40
2023-04-16T18:24:11.628Z,40.13
2023-04-16T18:26:18.372Z,41.25
2023-04-16T18:28:24.600Z,40.55
2023-04-16T18:30:28.243Z,36.88
2023-04-16T18:32:31.988Z,39.00
2023-04-16T18:34:38.015Z,37.20
2023-04-16T18:36:41.707Z,43.35
2023-04-16T18:38:59.361Z,40.75
2023-04-16T18:41:03.660Z,35.60
2023-04-16T18:43:06.348Z,36.28
2023-04-16T18:45:14.036Z,36.80
2023-04-16T18:47:18.690Z,34.88
2023-04-16T18:49:27.076Z,38.08
2023-04-16T18:51:34.556Z,40.10
2023-04-16T18:53:39.394Z,40.47
2023-04-16T18:55:42.148Z,36.97
2023-04-16T18:57:44.832Z,39.78
2023-04-16T18:59:50.487Z,38.78
2023-04-16T19:01:53.377Z,39.00
2023-04-16T19:03:56.664Z,30.83
2023-04-16T19:05:59.357Z,36.05
2023-04-16T19:08:05.177Z,33.40
2023-04-16T19:10:09.300Z,34.05
2023-04-16T19:12:12.067Z,37.42
2023-04-16T19:14:14.798Z,38.83
2023-04-16T19:16:17.549Z,36.97
2023-04-16T19:18:21.628Z,39.30
2023-04-16T19:20:26.147Z,36.58
2023-04-16T19:22:28.922Z,37.17
2023-04-16T19:24:35.199Z,38.85
2023-04-16T19:26:37.982Z,37.95
2023-04-16T19:28:42.550Z,37.65
2023-04-16T19:30:46.986Z,36.22
2023-04-16T19:32:49.881Z,37.42
2023-04-16T19:34:54.623Z,38.75
2023-04-16T19:36:59.704Z,37.20
2023-04-16T19:39:02.845Z,37.67
2023-04-16T19:41:08.295Z,40.60
2023-04-16T19:43:15.803Z,37.28
2023-04-16T19:45:18.928Z,55.08
2023-04-16T19:47:21.952Z,35.97
2023-04-16T19:49:27.961Z,36.00
2023-04-16T19:51:32.082Z,36.78
2023-04-16T19:53:35.103Z,44.70
2023-04-16T19:55:40.057Z,36.80
2023-04-16T19:57:48.000Z,40.97
2023-04-16T19:59:55.087Z,36.15
2023-04-16T20:01:58.086Z,38.35
2023-04-16T20:04:00.871Z,46.35
2023-04-16T20:06:05.653Z,39.38
2023-04-16T20:08:08.939Z,50.05
2023-04-16T20:10:12.024Z,40.27
2023-04-16T20:12:17.340Z,41.22
2023-04-16T20:14:22.693Z,37.58
2023-04-16T20:16:25.461Z,38.47
2023-04-16T20:18:30.395Z,44.00
2023-04-16T20:20:35.634Z,31.92
2023-04-16T20:22:38.511Z,29.90
2023-04-16T20:24:49.081Z,37.63
2023-04-16T20:26:51.936Z,33.05
2023-04-16T20:28:56.307Z,37.95
2023-04-16T20:31:01.895Z,42.63
2023-04-16T20:33:06.917Z,35.20
2023-04-16T20:35:11.628Z,38.92
2023-04-16T20:37:15.206Z,41.15
2023-04-16T20:39:20.553Z,41.55
2023-04-16T20:41:25.335Z,41.92
2023-04-16T20:43:29.825Z,44.17
2023-04-16T20:45:38.264Z,42.25
2023-04-16T20:47:45.076Z,39.97
2023-04-16T20:49:48.060Z,40.63
2023-04-16T20:51:53.852Z,42.72
2023-04-16T20:53:58.477Z,42.47
2023-04-16T20:56:01.171Z,43.42
2023-04-16T20:58:05.929Z,38.22
2023-04-16T21:00:12.287Z,44.72
2023-04-16T21:02:15.253Z,40.45
2023-04-16T21:04:21.006Z,43.08
2023-04-16T21:06:23.957Z,43.65
2023-04-16T21:08:26.647Z,44.47
2023-04-16T21:10:31.198Z,40.05
2023-04-16T21:12:33.858Z,38.50
2023-04-16T21:14:38.212Z,40.47
2023-04-16T21:18:46.101Z,36.80
2023-04-16T21:20:51.357Z,40.28
2023-04-16T21:22:56.993Z,39.75
2023-04-16T21:24:59.787Z,39.90
2023-04-16T21:27:02.552Z,42.03
2023-04-16T21:29:05.361Z,41.65
2023-04-16T21:31:08.066Z,40.15
2023-04-16T21:33:13.040Z,49.70
2023-04-16T21:35:16.258Z,41.78
2023-04-16T21:37:22.427Z,38.90
2023-04-16T21:39:27.977Z,36.72
2023-04-16T21:41:30.700Z,38.45
2023-04-16T21:43:33.528Z,38.25
2023-04-16T21:45:36.302Z,42.08
2023-04-16T21:47:39.304Z,40.83
2023-04-16T21:49:42.669Z,40.13
2023-04-16T21:51:46.490Z,40.20
2023-04-16T21:53:51.986Z,39.42
2023-04-16T21:55:54.892Z,40.13
2023-04-16T21:57:57.565Z,46.42
2023-04-16T22:00:00.262Z,43.13
2023-04-16T22:02:03.827Z,40.57
2023-04-16T22:04:07.860Z,40.53
2023-04-16T22:06:11.741Z,42.97
2023-04-16T22:08:24.110Z,40.15
2023-04-16T22:10:31.248Z,41.15
2023-04-16T22:12:35.874Z,43.67
2023-04-16T22:14:43.966Z,40.88
2023-04-16T22:16:51.858Z,43.13
2023-04-16T22:18:55.255Z,38.50
2023-04-16T22:21:02.402Z,43.33
2023-04-16T22:23:05.136Z,42.40
2023-04-16T22:25:08.554Z,43.72
2023-04-16T22:27:13.952Z,43.90
2023-04-16T22:29:17.970Z,42.75
2023-04-16T22:31:20.654Z,42.70
2023-04-16T22:33:23.411Z,43.33
2023-04-16T22:35:26.162Z,51.38
2023-04-16T22:37:29.682Z,43.75
2023-04-16T22:39:32.483Z,42.20
2023-04-16T22:41:37.994Z,41.33
2023-04-16T22:43:43.353Z,45.10
2023-04-16T22:45:46.604Z,42.92
2023-04-16T22:47:49.441Z,45.23
2023-04-16T22:49:53.702Z,41.90
2023-04-16T22:51:56.482Z,41.60
2023-04-16T22:53:59.146Z,41.90
2023-04-16T22:56:03.288Z,43.13
2023-04-16T22:58:05.951Z,42.55
2023-04-16T23:00:16.930Z,44.67
2023-04-16T23:02:20.026Z,43.72
2023-04-16T23:04:23.070Z,42.45
2023-04-16T23:06:27.413Z,41.92
2023-04-16T23:10:32.657Z,41.05
2023-04-16T23:12:37.619Z,43.35
2023-04-16T23:14:49.061Z,46.03
2023-04-16T23:16:54.434Z,41.97
2023-04-16T23:18:57.898Z,46.50
2023-04-16T23:21:00.708Z,45.42
2023-04-16T23:23:03.572Z,46.45
2023-04-16T23:25:08.890Z,45.40
2023-04-16T23:27:12.744Z,50.55
2023-04-16T23:29:15.690Z,54.55
2023-04-16T23:31:18.472Z,48.17
2023-04-16T23:33:24.040Z,46.72
2023-04-16T23:35:26.796Z,44.55
2023-04-16T23:37:30.298Z,47.13
2023-04-16T23:39:32.974Z,46.22
2023-04-16T23:41:35.593Z,44.75
2023-04-16T23:43:40.306Z,46.88
2023-04-16T23:45:43.248Z,46.65
2023-04-16T23:47:46.032Z,40.92
2023-04-16T23:49:51.339Z,44.95
2023-04-16T23:51:56.574Z,43.35
2023-04-16T23:53:59.460Z,44.20
2023-04-16T23:56:02.542Z,50.47
2023-04-16T23:58:05.164Z,49.28
